Time;durP1;ratioP1;P1;durP2;ratioP2;P2;SDS_P1;SDS_P2;PMS_P1;PMS_P2;Temp;Humidity;BMP_temperature;BMP_pressure;BME280_temperature;BME280_humidity;BME280_pressure;Samples;Min_cycle;Max_cycle;Signal;HPM_P1;HPM_P2
2022/03/10 00:01:58;;;;;;;39.10;22.33;;;;;;;5.67;47.16;102278.63;4978719;28;20041;-69
2022/03/10 00:04:24;;;;;;;43.07;22.47;;;;;;;5.67;47.03;102273.34;4975604;28;20100;-69
2022/03/10 00:06:49;;;;;;;43.33;22.70;;;;;;;5.58;47.31;102277.44;4976824;28;20125;-69
2022/03/10 00:09:14;;;;;;;47.70;22.77;;;;;;;5.49;47.45;102283.34;4974004;28;20022;-70
2022/03/10 00:11:40;;;;;;;52.77;26.83;;;;;;;5.38;47.26;102277.09;4975751;28;20093;-69
2022/03/10 00:14:05;;;;;;;61.17;28.80;;;;;;;5.25;47.67;102274.44;4977207;28;20576;-69
2022/03/10 00:16:31;;;;;;;57.13;30.23;;;;;;;5.12;47.79;102277.00;4975516;28;20031;-69
2022/03/10 00:18:56;;;;;;;56.67;30.83;;;;;;;5.00;48.19;102283.06;4974654;28;20031;-69
2022/03/10 00:21:21;;;;;;;60.13;30.37;;;;;;;4.97;48.46;102276.22;4972833;28;20065;-69
2022/03/10 00:23:47;;;;;;;54.07;27.23;;;;;;;4.94;48.45;102271.16;4976103;28;20591;-69
2022/03/10 00:26:12;;;;;;;46.10;25.30;;;;;;;4.95;48.43;102278.13;4979835;28;20089;-69
2022/03/10 00:28:37;;;;;;;49.10;25.43;;;;;;;4.87;48.80;102274.25;4979546;28;20034;-69
2022/03/10 00:31:02;;;;;;;46.77;25.87;;;;;;;4.90;48.81;102287.22;4979473;28;20039;-69
2022/03/10 00:33:28;;;;;;;48.93;26.97;;;;;;;4.91;49.24;102295.03;4982710;28;20030;-69
2022/03/10 00:35:53;;;;;;;42.87;24.53;;;;;;;4.88;49.30;102271.53;4983067;28;20133;-69
2022/03/10 00:38:18;;;;;;;41.23;23.23;;;;;;;5.02;49.02;102294.34;4977747;28;20039;-70
2022/03/10 00:40:45;;;;;;;45.87;24.77;;;;;;;5.02;49.10;102291.72;4981476;28;20442;-70
2022/03/10 00:43:14;;;;;;;44.23;24.77;;;;;;;5.02;49.19;102290.88;4979747;28;20031;-70
2022/03/10 00:45:39;;;;;;;48.35;27.38;;;;;;;4.72;49.67;102273.47;4981644;28;20777;-69
2022/03/10 00:48:05;;;;;;;56.03;29.17;;;;;;;4.64;50.08;102291.53;4976751;28;20057;-70
2022/03/10 00:50:31;;;;;;;63.07;32.20;;;;;;;4.44;50.37;102281.41;4980939;28;20030;-70
2022/03/10 00:52:56;;;;;;;63.50;32.80;;;;;;;4.41;50.52;102292.13;4983462;28;20142;-70
2022/03/10 00:55:22;;;;;;;56.17;28.77;;;;;;;4.26;50.79;102280.75;4981548;28;20046;-70
2022/03/10 00:57:48;;;;;;;50.33;27.00;;;;;;;4.22;51.05;102293.25;4979805;28;20093;-69
2022/03/10 01:00:15;;;;;;;52.40;28.33;;;;;;;4.20;50.95;102296.91;4979442;28;20056;-69
2022/03/10 01:02:41;;;;;;;58.53;28.60;;;;;;;4.20;51.10;102295.13;4982181;28;20556;-70
2022/03/10 01:05:07;;;;;;;63.10;31.13;;;;;;;4.16;51.47;102298.88;4965695;28;20030;-71
2022/03/10 01:07:33;;;;;;;64.63;32.53;;;;;;;4.17;51.41;102289.22;4979421;28;20023;-69
2022/03/10 01:09:58;;;;;;;66.40;32.47;;;;;;;4.13;51.55;102295.59;4977610;28;20080;-69
2022/03/10 01:12:23;;;;;;;65.07;31.03;;;;;;;4.09;51.42;102296.72;4978422;28;20039;-69
2022/03/10 01:14:49;;;;;;;45.50;25.27;;;;;;;4.08;51.76;102281.88;4976531;28;20026;-69
2022/03/10 01:17:14;;;;;;;54.03;25.90;;;;;;;4.13;51.98;102288.56;4982062;28;20493;-69
2022/03/10 01:19:39;;;;;;;47.13;24.37;;;;;;;4.12;51.94;102283.38;4987813;28;20035;-70
2022/03/10 01:22:06;;;;;;;43.20;23.93;;;;;;;4.19;52.05;102287.31;4981633;28;20035;-70
2022/03/10 01:24:32;;;;;;;45.27;24.23;;;;;;;4.26;52.12;102291.25;4981228;28;20290;-69
2022/03/10 01:26:57;;;;;;;47.93;24.23;;;;;;;4.27;52.09;102285.91;4976849;28;20089;-70
2022/03/10 01:29:22;;;;;;;48.17;23.57;;;;;;;4.28;52.04;102284.13;4978799;28;20022;-69
2022/03/10 01:31:47;;;;;;;50.87;24.27;;;;;;;4.20;52.14;102273.25;4979828;28;20501;-69
2022/03/10 01:34:13;;;;;;;44.63;23.97;;;;;;;4.31;52.30;102282.16;4981027;28;20088;-69
2022/03/10 01:36:39;;;;;;;44.07;22.87;;;;;;;4.29;52.29;102275.28;4980932;28;20423;-69
2022/03/10 01:39:04;;;;;;;47.77;24.30;;;;;;;4.32;52.44;102275.09;4980131;28;20104;-69
2022/03/10 01:41:33;;;;;;;44.87;23.20;;;;;;;4.34;52.37;102287.25;4976478;28;20437;-69
2022/03/10 01:44:04;;;;;;;46.15;24.38;;;;;;;4.30;52.64;102277.81;4980283;28;20077;-69
2022/03/10 01:46:31;;;;;;;49.17;24.00;;;;;;;4.36;52.69;102284.53;4978920;28;20053;-69
2022/03/10 01:48:57;;;;;;;47.33;23.83;;;;;;;4.34;52.46;102283.78;4984196;28;20504;-69
2022/03/10 01:51:23;;;;;;;45.07;24.20;;;;;;;4.37;52.59;102277.47;4977285;28;20035;-69
2022/03/10 01:53:50;;;;;;;43.77;23.10;;;;;;;4.33;52.55;102271.53;4979012;28;20026;-70
2022/03/10 01:56:20;;;;;;;45.07;23.63;;;;;;;4.38;52.66;102284.41;4980131;28;20130;-69
2022/03/10 01:58:47;;;;;;;41.58;23.25;;;;;;;4.32;52.69;102277.72;4980501;28;20130;-69
2022/03/10 02:01:15;;;;;;;42.60;23.43;;;;;;;4.30;52.83;102282.25;4977064;28;20042;-69
2022/03/10 02:03:41;;;;;;;44.80;23.80;;;;;;;4.33;52.86;102282.06;4980553;28;20033;-69
2022/03/10 02:06:07;;;;;;;46.60;23.67;;;;;;;4.31;52.90;102286.56;4976699;28;20038;-69
2022/03/10 02:11:17;;;;;;;44.13;23.77;;;;;;;4.27;53.10;102279.81;4977850;28;20442;-69
2022/03/10 02:13:42;;;;;;;46.73;24.03;;;;;;;4.28;53.14;102279.72;4978211;28;20035;-69
2022/03/10 02:19:00;;;;;;;43.43;23.27;;;;;;;4.21;53.17;102280.19;4984157;28;20081;-69
2022/03/10 02:21:26;;;;;;;42.83;21.63;;;;;;;4.21;53.24;102282.81;4979073;28;20466;-69
2022/03/10 02:23:52;;;;;;;41.70;23.13;;;;;;;4.19;53.22;102282.06;4977281;28;20026;-69
2022/03/10 02:26:17;;;;;;;47.43;23.27;;;;;;;4.16;53.37;102272.59;4976548;28;20037;-69
2022/03/10 02:28:42;;;;;;;47.20;22.87;;;;;;;4.09;53.49;102267.81;4957689;28;20039;-69
2022/03/10 02:31:09;;;;;;;41.13;23.03;;;;;;;4.11;53.50;102265.94;4978135;28;20023;-68
2022/03/10 02:33:35;;;;;;;43.83;23.60;;;;;;;4.09;53.50;102273.06;4975879;28;20021;-70
2022/03/10 02:36:00;;;;;;;41.67;22.97;;;;;;;4.08;53.73;102274.00;4977314;28;20520;-70
2022/03/10 02:38:26;;;;;;;43.93;22.60;;;;;;;4.06;53.55;102271.47;4978142;28;20367;-70
2022/03/10 02:40:51;;;;;;;43.60;22.83;;;;;;;4.03;53.73;102269.84;4976360;28;20042;-69
2022/03/10 02:43:18;;;;;;;43.03;23.53;;;;;;;4.02;53.86;102265.53;4975119;28;20057;-69
2022/03/10 02:45:44;;;;;;;43.17;23.50;;;;;;;4.02;54.19;102272.56;4978832;28;20088;-69
2022/03/10 02:48:09;;;;;;;42.53;23.63;;;;;;;4.01;53.98;102273.50;4977664;28;20018;-69
2022/03/10 02:50:35;;;;;;;43.13;23.27;;;;;;;3.95;54.08;102264.22;4981439;28;20057;-69
2022/03/10 02:53:00;;;;;;;42.20;23.07;;;;;;;3.91;54.29;102265.34;4979302;28;20401;-69
2022/03/10 02:55:25;;;;;;;43.37;23.20;;;;;;;3.97;54.31;102272.84;4976083;28;20037;-69
2022/03/10 02:57:50;;;;;;;44.13;24.83;;;;;;;3.93;54.31;102279.22;4980176;28;20034;-69
2022/03/10 03:00:17;;;;;;;43.30;22.93;;;;;;;3.85;54.02;102265.72;4974144;28;20141;-69
2022/03/10 03:02:43;;;;;;;46.07;24.33;;;;;;;3.77;54.51;102260.09;4976010;28;20497;-69
2022/03/10 03:05:12;;;;;;;43.20;23.37;;;;;;;3.82;54.52;102273.78;4977606;28;20085;-69
2022/03/10 03:07:37;;;;;;;46.83;23.13;;;;;;;3.78;54.57;102269.66;4988041;28;20445;-69
2022/03/10 03:10:03;;;;;;;48.30;23.63;;;;;;;3.73;54.72;102276.94;4960610;28;20026;-69
2022/03/10 03:12:29;;;;;;;45.50;24.10;;;;;;;3.73;54.73;102280.41;4979911;28;20030;-69
2022/03/10 03:14:54;;;;;;;45.73;23.53;;;;;;;3.67;54.85;102275.53;4986520;28;20061;-69
2022/03/10 03:17:19;;;;;;;42.77;23.33;;;;;;;3.68;54.98;102284.25;4985303;28;20035;-69
2022/03/10 03:19:45;;;;;;;41.80;22.50;;;;;;;3.68;55.05;102286.88;4976300;28;20033;-69
2022/03/10 03:22:10;;;;;;;44.63;23.77;;;;;;;3.67;55.08;102285.19;4981923;28;20026;-69
2022/03/10 03:24:36;;;;;;;42.87;23.43;;;;;;;3.63;55.20;102286.31;4979132;28;20593;-69
2022/03/10 03:27:02;;;;;;;43.10;23.27;;;;;;;3.65;55.54;102287.06;4979019;28;20029;-69
2022/03/10 03:29:27;;;;;;;46.57;23.37;;;;;;;3.63;55.51;102288.94;4972862;28;20011;-69
2022/03/10 03:31:54;;;;;;;42.53;23.70;;;;;;;3.59;55.68;102290.91;4982358;28;20375;-69
2022/03/10 03:34:20;;;;;;;44.27;23.10;;;;;;;3.58;55.70;102293.63;4976354;28;20038;-69
2022/03/10 03:36:46;;;;;;;40.97;22.87;;;;;;;3.57;55.70;102289.31;4976319;28;20062;-69
2022/03/10 03:39:13;;;;;;;43.90;22.50;;;;;;;3.55;56.03;102291.19;4971694;28;20027;-69
2022/03/10 03:41:39;;;;;;;49.50;24.03;;;;;;;3.42;56.05;102285.78;4974072;28;20601;-69
2022/03/10 03:44:06;;;;;;;43.10;23.43;;;;;;;3.47;56.24;102291.63;4977530;28;20026;-69
2022/03/10 03:46:32;;;;;;;42.93;21.93;;;;;;;3.47;56.44;102298.63;4978245;28;20027;-69
2022/03/10 03:48:57;;;;;;;41.03;21.83;;;;;;;3.49;56.48;102294.16;4975424;28;20065;-69
2022/03/10 03:51:23;;;;;;;39.43;22.50;;;;;;;3.48;56.32;102306.44;4976150;28;20035;-69
2022/03/10 03:53:49;;;;;;;42.50;23.00;;;;;;;3.41;56.36;102297.22;4981160;28;20034;-69
2022/03/10 03:56:14;;;;;;;43.97;23.37;;;;;;;3.42;56.73;102299.75;4975546;28;20035;-69
2022/03/10 03:58:40;;;;;;;46.67;22.83;;;;;;;3.39;56.41;102302.56;4976676;28;20603;-69
2022/03/10 04:01:05;;;;;;;46.67;23.57;;;;;;;3.37;56.46;102304.44;4979608;28;20030;-69
2022/03/10 04:03:31;;;;;;;43.53;22.80;;;;;;;3.36;56.51;102318.50;4976096;28;20104;-69
2022/03/10 04:05:56;;;;;;;44.47;23.87;;;;;;;3.34;56.55;102320.34;4978647;28;20506;-69
2022/03/10 04:08:22;;;;;;;51.43;26.33;;;;;;;3.28;56.85;102319.88;4974593;28;20069;-69
2022/03/10 04:10:48;;;;;;;54.03;29.00;;;;;;;3.12;57.37;102319.88;4976541;28;20027;-69
2022/03/10 04:13:13;;;;;;;52.67;27.83;;;;;;;3.02;57.50;102321.34;4977462;28;20027;-69
2022/03/10 04:15:38;;;;;;;50.73;25.43;;;;;;;2.96;57.77;102319.91;4983597;28;20371;-69
2022/03/10 04:18:04;;;;;;;44.87;25.23;;;;;;;2.87;57.96;102315.13;4975443;28;20018;-69
2022/03/10 04:20:30;;;;;;;41.23;23.97;;;;;;;2.84;58.47;102314.47;4979434;28;20030;-69
2022/03/10 04:22:56;;;;;;;44.93;23.73;;;;;;;2.76;58.80;102315.75;4975977;28;20031;-69
2022/03/10 04:25:21;;;;;;;48.13;24.17;;;;;;;2.72;59.09;102321.25;4978155;28;20057;-69
2022/03/10 04:27:46;;;;;;;43.57;24.30;;;;;;;2.66;59.52;102311.09;4980444;28;20038;-69
2022/03/10 04:30:13;;;;;;;44.03;23.87;;;;;;;2.64;59.49;102315.56;4977958;28;20368;-70
2022/03/10 04:32:42;;;;;;;48.13;24.87;;;;;;;2.58;60.00;102308.84;4981183;28;20053;-69
2022/03/10 04:35:08;;;;;;;;;;;;;;;2.72;59.62;102318.63;4985827;28;20023;-69
2022/03/10 04:37:33;;;;;;;57.13;28.43;;;;;;;2.70;59.54;102312.59;4974539;28;19914;-69
2022/03/10 04:39:58;;;;;;;59.80;28.70;;;;;;;2.68;59.50;102315.31;4975706;28;20034;-69
2022/03/10 04:42:24;;;;;;;53.10;26.50;;;;;;;2.75;59.45;102313.19;4981375;28;20026;-69
2022/03/10 04:44:49;;;;;;;58.43;27.30;;;;;;;2.76;59.24;102318.38;4984742;28;20037;-69
2022/03/10 04:47:14;;;;;;;62.43;28.97;;;;;;;2.76;59.62;102320.97;4986702;28;20113;-69
2022/03/10 04:49:40;;;;;;;60.60;28.67;;;;;;;2.71;59.59;102317.78;4988343;28;20037;-69
2022/03/10 04:52:06;;;;;;;74.23;31.57;;;;;;;2.62;59.43;102317.44;4983137;28;20026;-69
2022/03/10 04:54:31;;;;;;;45.23;23.97;;;;;;;2.48;59.84;102307.66;4980618;28;20107;-69
2022/03/10 04:56:56;;;;;;;48.50;25.27;;;;;;;2.44;60.04;102321.88;4983957;28;20026;-69
2022/03/10 04:59:22;;;;;;;44.73;24.30;;;;;;;2.36;60.20;102318.81;4984930;28;20601;-69
2022/03/10 05:01:47;;;;;;;43.40;23.87;;;;;;;2.28;60.36;102326.22;4976758;28;20042;-69
2022/03/10 05:04:12;;;;;;;45.10;24.70;;;;;;;2.17;60.53;102311.91;4975244;28;20042;-69
2022/03/10 05:06:37;;;;;;;47.27;24.57;;;;;;;2.10;60.72;102309.69;4977131;28;20027;-69
2022/03/10 05:09:02;;;;;;;45.00;24.30;;;;;;;2.11;61.16;102327.97;4978327;28;20026;-69
2022/03/10 05:11:28;;;;;;;46.13;23.90;;;;;;;2.08;61.52;102322.03;4975700;28;20300;-69
2022/03/10 05:13:53;;;;;;;46.47;24.63;;;;;;;2.00;61.23;102317.16;4978672;28;20056;-68
2022/03/10 05:16:18;;;;;;;47.13;24.27;;;;;;;2.00;61.75;102326.81;4977279;28;20065;-68
2022/03/10 05:18:45;;;;;;;41.13;22.90;;;;;;;2.00;61.83;102327.66;4984231;28;20450;-69
2022/03/10 05:21:10;;;;;;;44.37;24.37;;;;;;;1.97;61.98;102327.81;4959164;28;20553;-69
2022/03/10 05:23:35;;;;;;;39.37;22.77;;;;;;;1.92;62.14;102319.34;4984503;28;20101;-69
2022/03/10 05:26:01;;;;;;;43.07;24.10;;;;;;;1.97;62.32;102335.66;4981702;28;20060;-68
2022/03/10 05:28:26;;;;;;;41.97;24.40;;;;;;;1.93;62.44;102335.91;4984513;28;20351;-69
2022/03/10 05:30:51;;;;;;;45.27;24.23;;;;;;;1.91;62.41;102329.91;4983081;28;20030;-69
2022/03/10 05:33:17;;;;;;;51.83;25.60;;;;;;;1.92;62.42;102324.59;4960138;28;20030;-68
2022/03/10 05:35:42;;;;;;;57.50;27.57;;;;;;;1.92;62.46;102323.75;4984115;28;20418;-69
2022/03/10 05:38:08;;;;;;;58.93;27.50;;;;;;;1.94;62.47;102327.13;4982902;28;20037;-69
2022/03/10 05:40:33;;;;;;;59.27;28.00;;;;;;;1.91;62.50;102329.91;4982152;28;20410;-69
2022/03/10 05:42:59;;;;;;;67.73;29.47;;;;;;;1.88;62.44;102320.44;4979526;28;20494;-69
2022/03/10 05:45:24;;;;;;;94.40;37.77;;;;;;;1.88;62.28;102319.59;4979465;28;20030;-69
2022/03/10 05:47:52;;;;;;;115.03;43.27;;;;;;;1.85;62.41;102325.84;4982329;28;20027;-68
2022/03/10 05:50:17;;;;;;;72.10;31.37;;;;;;;1.75;62.56;102314.97;4979080;28;20474;-69
2022/03/10 05:52:45;;;;;;;65.17;28.10;;;;;;;1.81;62.44;102316.44;4981224;28;21554;-69
2022/03/10 05:55:12;;;;;;;54.97;24.57;;;;;;;1.77;62.22;102307.06;4984912;28;20389;-69
2022/03/10 05:57:37;;;;;;;46.10;23.23;;;;;;;1.89;62.32;102326.53;4982205;28;20030;-69
2022/03/10 06:00:03;;;;;;;45.27;22.97;;;;;;;1.91;62.00;102322.91;4981137;28;20033;-69
2022/03/10 06:02:29;;;;;;;42.43;22.10;;;;;;;1.91;61.96;102315.03;4981069;28;20490;-69
2022/03/10 06:04:59;;;;;;;40.43;22.07;;;;;;;1.88;61.64;102304.72;4976851;28;20034;-69
2022/03/10 06:07:25;;;;;;;48.47;22.80;;;;;;;1.95;61.60;102324.44;4980801;28;20069;-69
2022/03/10 06:09:50;;;;;;;39.43;21.93;;;;;;;1.91;61.68;102307.19;4969907;28;20030;-69
2022/03/10 06:12:23;;;;;;;41.93;21.50;;;;;;;1.90;61.56;102300.25;4982260;28;20030;-69
2022/03/10 06:14:52;;;;;;;43.60;21.93;;;;;;;1.90;61.54;102315.97;4978989;28;20403;-68
2022/03/10 06:17:17;;;;;;;48.75;22.90;;;;;;;1.96;61.44;102309.56;4980273;28;20030;-68
2022/03/10 06:19:43;;;;;;;39.83;20.83;;;;;;;2.02;61.20;102327.56;4980176;28;20086;-69
2022/03/10 06:22:09;;;;;;;43.43;21.90;;;;;;;2.06;61.05;102324.75;4982794;28;20078;-69
2022/03/10 06:24:34;;;;;;;45.07;22.17;;;;;;;2.12;60.85;102323.56;4968873;28;20073;-69
2022/03/10 06:26:59;;;;;;;46.63;22.27;;;;;;;1.97;60.96;102291.13;4977167;28;20077;-69
2022/03/10 06:29:24;;;;;;;42.33;21.80;;;;;;;2.18;60.78;102321.47;4983017;28;20027;-69
2022/03/10 06:31:51;;;;;;;41.97;21.77;;;;;;;2.29;60.81;102334.00;4974126;28;20480;-68
2022/03/10 06:34:16;;;;;;;46.83;22.40;;;;;;;2.37;60.66;102336.25;4982152;28;20074;-69
2022/03/10 06:36:42;;;;;;;43.80;21.63;;;;;;;2.41;60.74;102333.38;4981465;28;20034;-69
2022/03/10 06:39:07;;;;;;;42.53;21.97;;;;;;;2.43;60.64;102322.81;4975218;28;20041;-69
2022/03/10 06:41:32;;;;;;;41.20;21.10;;;;;;;2.53;60.75;102329.25;4980528;28;20035;-69
2022/03/10 06:43:57;;;;;;;49.20;22.93;;;;;;;2.61;60.42;102340.19;4979661;28;20030;-69
2022/03/10 06:46:24;;;;;;;47.57;23.13;;;;;;;2.68;60.49;102344.16;4979545;28;20041;-68
2022/03/10 06:48:49;;;;;;;43.53;21.73;;;;;;;2.76;60.34;102343.75;4981471;28;20018;-68
2022/03/10 06:51:14;;;;;;;42.93;22.40;;;;;;;2.85;60.14;102350.25;4981324;28;20034;-69
2022/03/10 06:53:40;;;;;;;39.67;22.03;;;;;;;2.92;60.16;102355.13;4981145;28;20031;-68
2022/03/10 06:56:05;;;;;;;47.40;21.73;;;;;;;2.98;60.13;102348.69;4983401;28;20029;-68
2022/03/10 06:58:30;;;;;;;46.07;22.60;;;;;;;3.12;60.12;102346.13;4967746;28;20027;-68
2022/03/10 07:00:56;;;;;;;43.63;22.63;;;;;;;3.24;60.00;102348.06;4982571;28;20053;-69
2022/03/10 07:03:21;;;;;;;45.73;23.33;;;;;;;3.33;60.05;102349.31;4979563;28;20031;-68
2022/03/10 07:05:47;;;;;;;43.93;23.60;;;;;;;3.48;60.14;102351.09;4982522;28;20114;-68
2022/03/10 07:08:12;;;;;;;46.70;24.70;;;;;;;3.58;60.17;102349.63;4984889;28;20117;-69
2022/03/10 07:10:37;;;;;;;49.50;24.73;;;;;;;3.64;60.10;102351.91;4977650;28;20026;-68
2022/03/10 07:13:03;;;;;;;49.77;24.07;;;;;;;3.72;60.06;102348.81;4977197;28;20034;-69
2022/03/10 07:15:28;;;;;;;45.17;23.70;;;;;;;3.80;59.75;102358.91;4977356;28;20026;-69
2022/03/10 07:17:54;;;;;;;43.53;22.13;;;;;;;3.84;59.56;102348.13;4979953;28;20038;-67
2022/03/10 07:20:19;;;;;;;44.43;22.70;;;;;;;3.88;59.24;102349.63;4979567;28;20058;-67
2022/03/10 07:22:45;;;;;;;45.90;22.60;;;;;;;3.97;59.15;102354.31;4977784;28;20352;-68
2022/03/10 07:25:11;;;;;;;45.50;22.50;;;;;;;3.98;58.94;102348.13;4972780;28;20066;-68
2022/03/10 07:27:36;;;;;;;43.23;22.13;;;;;;;4.08;58.53;102351.09;4977738;28;20030;-68
2022/03/10 07:30:03;;;;;;;45.53;22.93;;;;;;;4.17;58.39;102353.16;4983003;28;20027;-68
2022/03/10 07:32:29;;;;;;;45.80;23.13;;;;;;;4.24;58.29;102348.38;4980589;28;20566;-68
2022/03/10 07:34:54;;;;;;;45.43;22.93;;;;;;;4.25;57.84;102343.00;4982142;28;20108;-68
2022/03/10 07:37:19;;;;;;;43.07;22.97;;;;;;;4.26;57.63;102346.47;4984581;28;20043;-67
2022/03/10 07:39:45;;;;;;;47.13;22.77;;;;;;;4.30;57.24;102343.56;4974793;28;20057;-68
2022/03/10 07:42:11;;;;;;;41.77;22.77;;;;;;;4.34;57.15;102346.88;4973580;28;20034;-68
2022/03/10 07:44:37;;;;;;;45.47;23.20;;;;;;;4.39;57.04;102351.88;4978270;28;20026;-68
2022/03/10 07:47:02;;;;;;;41.80;22.30;;;;;;;4.40;57.08;102351.78;4986043;28;20061;-68
2022/03/10 07:49:29;;;;;;;41.77;23.23;;;;;;;4.42;56.99;102333.25;4983839;28;20051;-68
2022/03/10 07:51:55;;;;;;;45.83;23.27;;;;;;;4.57;56.93;102348.09;4985511;28;20141;-68
2022/03/10 07:54:20;;;;;;;47.77;23.23;;;;;;;4.72;56.83;102354.19;4974455;28;20540;-68
2022/03/10 07:56:45;;;;;;;47.70;23.33;;;;;;;4.61;56.59;102332.00;4974436;28;20030;-68
2022/03/10 07:59:11;;;;;;;44.13;23.43;;;;;;;4.75;56.59;102354.00;4972801;28;20113;-68
2022/03/10 08:01:36;;;;;;;40.13;22.77;;;;;;;4.76;56.42;102346.00;4981220;28;20093;-68
2022/03/10 08:04:02;;;;;;;42.90;23.13;;;;;;;4.84;56.69;102350.78;4973584;28;20486;-68
2022/03/10 08:06:27;;;;;;;41.67;23.57;;;;;;;4.93;56.73;102351.06;4974408;28;20034;-68
2022/03/10 08:08:53;;;;;;;44.43;22.90;;;;;;;5.04;56.59;102355.66;4973583;28;20033;-67
2022/03/10 08:11:19;;;;;;;45.77;23.40;;;;;;;5.10;56.40;102360.53;4980352;28;20035;-67
2022/03/10 08:13:44;;;;;;;42.90;23.33;;;;;;;5.24;56.62;102357.88;4975963;28;20032;-68
2022/03/10 08:16:10;;;;;;;47.93;23.40;;;;;;;5.33;56.49;102364.31;4984560;28;20056;-67
2022/03/10 08:18:36;;;;;;;43.90;24.43;;;;;;;5.49;56.46;102358.88;4975610;28;20110;-68
2022/03/10 08:21:02;;;;;;;46.63;23.70;;;;;;;5.51;56.29;102362.28;4977366;28;20447;-67
2022/03/10 08:23:27;;;;;;;46.47;24.07;;;;;;;5.65;56.34;102351.66;4982617;28;20495;-68
2022/03/10 08:25:53;;;;;;;41.00;23.33;;;;;;;5.78;56.12;102357.84;4962476;28;20042;-68
2022/03/10 08:28:18;;;;;;;43.93;23.03;;;;;;;5.88;55.95;102353.63;4980549;28;20041;-68
2022/03/10 08:30:44;;;;;;;41.00;23.33;;;;;;;5.94;55.52;102354.19;4986939;28;20493;-67
2022/03/10 08:33:09;;;;;;;44.33;24.13;;;;;;;5.93;55.65;102340.16;4984777;28;20040;-67
2022/03/10 08:35:35;;;;;;;41.37;23.17;;;;;;;6.08;55.40;102343.56;4983925;28;20101;-68
2022/03/10 08:38:01;;;;;;;45.57;23.33;;;;;;;6.21;55.44;102342.59;4974753;28;20121;-69
2022/03/10 08:40:26;;;;;;;43.73;23.53;;;;;;;6.40;55.33;102344.81;4976236;28;20124;-68
2022/03/10 08:42:52;;;;;;;50.13;24.73;;;;;;;6.60;55.33;102350.50;4976242;28;20057;-67
2022/03/10 08:45:18;;;;;;;44.73;24.00;;;;;;;6.68;55.14;102349.03;4973495;28;20043;-69
2022/03/10 08:47:44;;;;;;;45.47;23.40;;;;;;;6.73;54.84;102351.34;4979034;28;20401;-67
2022/03/10 08:50:11;;;;;;;44.17;24.23;;;;;;;6.85;54.34;102334.59;4982472;28;20034;-68
2022/03/10 08:52:37;;;;;;;42.60;22.73;;;;;;;6.95;54.16;102335.66;4987343;28;20389;-67
2022/03/10 08:55:03;;;;;;;44.60;23.37;;;;;;;7.06;54.34;102333.06;4993843;28;20025;-67
2022/03/10 08:57:28;;;;;;;44.73;23.83;;;;;;;7.26;54.22;102328.16;4988114;28;20061;-67
2022/03/10 08:59:54;;;;;;;46.80;24.30;;;;;;;7.49;54.29;102331.72;4965580;28;20362;-67
2022/03/10 09:02:19;;;;;;;48.17;24.50;;;;;;;7.62;53.98;102325.41;4989367;28;20120;-68
2022/03/10 09:04:44;;;;;;;43.30;24.77;;;;;;;7.60;54.00;102316.75;4983825;28;20034;-68
2022/03/10 09:07:09;;;;;;;44.57;23.73;;;;;;;7.81;53.65;102329.31;4972446;28;20346;-68
2022/03/10 09:09:35;;;;;;;44.77;24.90;;;;;;;7.93;53.20;102331.88;4978402;28;20390;-68
2022/03/10 09:12:00;;;;;;;42.00;23.13;;;;;;;7.95;52.86;102322.00;4985794;28;20030;-68
2022/03/10 09:14:25;;;;;;;53.92;24.15;;;;;;;8.08;52.76;102321.91;4985415;28;20037;-68
2022/03/10 09:16:52;;;;;;;43.78;24.30;;;;;;;8.07;52.11;102325.50;4981462;28;20486;-69
2022/03/10 09:19:17;;;;;;;52.70;24.40;;;;;;;8.15;51.73;102323.13;4983491;28;20046;-67
2022/03/10 09:21:43;;;;;;;44.20;23.83;;;;;;;8.25;52.02;102317.97;4984489;28;20034;-68
2022/03/10 09:24:09;;;;;;;46.10;25.10;;;;;;;8.37;51.70;102317.88;4977469;28;20034;-67
2022/03/10 09:26:35;;;;;;;42.83;23.92;;;;;;;8.43;51.27;102313.94;4981417;28;20038;-67
2022/03/10 09:29:01;;;;;;;43.80;23.88;;;;;;;8.63;51.49;102307.03;4978336;28;20030;-67
2022/03/10 09:31:27;;;;;;;43.92;24.60;;;;;;;8.81;51.39;102300.28;4982566;28;20586;-68
2022/03/10 09:33:53;;;;;;;45.08;24.60;;;;;;;8.98;51.13;102313.03;4982079;28;20030;-67
2022/03/10 09:36:19;;;;;;;43.92;23.98;;;;;;;9.11;51.37;102290.81;4981150;28;20046;-68
2022/03/10 09:38:45;;;;;;;42.70;24.30;;;;;;;9.14;50.63;102302.00;4976431;28;20062;-68
2022/03/10 09:41:10;;;;;;;41.50;23.65;;;;;;;9.33;50.97;102309.31;4976977;28;20129;-67
2022/03/10 09:43:37;;;;;;;45.10;23.05;;;;;;;9.43;50.27;102304.06;4979826;28;20030;-68
2022/03/10 09:46:04;;;;;;;47.50;24.45;;;;;;;9.43;50.27;102299.59;4967017;28;20034;-68
2022/03/10 09:48:30;;;;;;;43.45;23.60;;;;;;;9.49;49.63;102292.94;4981120;28;20493;-68
2022/03/10 09:50:55;;;;;;;43.58;23.98;;;;;;;9.59;49.95;102286.75;4984768;28;20027;-68
2022/03/10 09:53:21;;;;;;;39.70;23.33;;;;;;;9.72;49.67;102286.56;4987595;28;20049;-69
2022/03/10 09:55:46;;;;;;;44.75;23.52;;;;;;;9.86;49.10;102280.94;4971399;28;20037;-68
2022/03/10 09:58:11;;;;;;;40.15;23.48;;;;;;;10.08;49.15;102279.09;4981877;28;20045;-68
2022/03/10 10:00:37;;;;;;;44.05;21.95;;;;;;;10.14;48.51;102287.38;4979945;28;20042;-68
2022/03/10 10:03:02;;;;;;;42.83;22.95;;;;;;;10.25;48.43;102286.47;4982522;28;20066;-68
2022/03/10 10:05:29;;;;;;;39.40;22.90;;;;;;;10.49;48.91;102283.50;4987011;28;20564;-68
2022/03/10 10:08:05;;;;;;;43.40;23.00;;;;;;;10.61;48.39;102287.72;4973011;28;20026;-68
2022/03/10 10:10:31;;;;;;;39.72;22.38;;;;;;;10.68;47.91;102280.88;4976462;28;20037;-68
2022/03/10 10:12:57;;;;;;;39.40;21.85;;;;;;;10.75;47.50;102286.53;4979952;28;20447;-67
2022/03/10 10:15:22;;;;;;;40.85;22.73;;;;;;;11.00;47.61;102285.16;4982011;28;20065;-68
2022/03/10 10:17:56;;;;;;;42.65;22.13;;;;;;;11.14;47.34;102285.59;4976019;28;20027;-68
2022/03/10 10:20:22;;;;;;;39.22;21.80;;;;;;;11.20;46.78;102288.66;4974052;28;20350;-68
2022/03/10 10:22:48;;;;;;;35.55;20.80;;;;;;;11.31;46.67;102269.94;4980907;28;20096;-68
2022/03/10 10:25:19;;;;;;;38.75;21.65;;;;;;;11.23;45.95;102283.91;4977469;28;20467;-68
2022/03/10 10:27:46;;;;;;;39.65;21.67;;;;;;;11.26;45.93;102267.66;4973921;28;20129;-68
2022/03/10 10:30:12;;;;;;;37.38;21.23;;;;;;;11.43;46.32;102260.81;4984678;28;20034;-68
2022/03/10 10:32:44;;;;;;;37.75;21.75;;;;;;;11.57;46.14;102271.03;4987729;28;20077;-68
2022/03/10 10:35:20;;;;;;;38.22;20.52;;;;;;;11.70;46.11;102268.06;4971118;28;20035;-67
2022/03/10 10:37:48;;;;;;;42.17;22.13;;;;;;;11.89;46.38;102273.38;4976634;28;20488;-68
2022/03/10 10:40:20;;;;;;;35.55;21.30;;;;;;;12.01;46.13;102260.75;4981274;28;20486;-68
2022/03/10 10:42:45;;;;;;;37.33;21.55;;;;;;;12.13;45.73;102250.72;4974138;28;20034;-68
2022/03/10 10:45:32;;;;;;;37.65;21.05;;;;;;;12.20;45.70;102263.34;4972221;28;20042;-69
2022/03/10 10:47:58;;;;;;;43.75;21.88;;;;;;;12.08;44.83;102260.00;4983720;28;20028;-70
2022/03/10 10:50:24;;;;;;;38.33;21.27;;;;;;;12.08;45.44;102256.50;4977412;28;20109;-68
2022/03/10 10:52:49;;;;;;;36.83;22.15;;;;;;;12.08;45.24;102257.34;4985158;28;20116;-69
2022/03/10 10:55:14;;;;;;;40.83;23.13;;;;;;;12.04;44.78;102255.97;4955468;28;20026;-71
2022/03/10 10:57:39;;;;;;;43.58;22.73;;;;;;;12.07;44.98;102262.81;4975339;28;20109;-68
2022/03/10 11:00:09;;;;;;;43.08;23.58;;;;;;;12.11;45.20;102250.88;4986209;28;20692;-69
2022/03/10 11:02:42;;;;;;;38.30;21.92;;;;;;;12.17;44.85;102244.16;4987707;28;20030;-69
2022/03/10 11:05:11;;;;;;;44.42;23.77;;;;;;;12.22;45.23;102244.56;4987808;28;20026;-69
2022/03/10 11:07:37;;;;;;;39.67;22.80;;;;;;;12.30;45.42;102242.81;4988376;28;20538;-69
2022/03/10 11:10:03;;;;;;;39.35;22.90;;;;;;;12.34;45.27;102244.19;4980786;28;20386;-69
2022/03/10 11:12:29;;;;;;;40.35;21.15;;;;;;;12.48;45.61;102236.72;4979521;28;20109;-70
2022/03/10 11:14:55;;;;;;;43.53;21.42;;;;;;;12.55;45.21;102246.63;4980820;28;20166;-69
2022/03/10 11:17:20;;;;;;;39.80;20.80;;;;;;;12.60;44.85;102239.00;4982366;28;20019;-69